Time;durP1;ratioP1;P1;durP2;ratioP2;P2;SDS_P1;SDS_P2;PMS_P1;PMS_P2;Temp;Humidity;BMP_temperature;BMP_pressure;BME280_temperature;BME280_humidity;BME280_pressure;Samples;Min_cycle;Max_cycle;Signal;HPM_P1;HPM_P2
2023/07/30 00:00:31;;;;;;;6.10;5.10;;;19.20;99.90;;;;;;5010497;28;20026;-54
2023/07/30 00:03:17;;;;;;;6.93;5.40;;;19.20;99.90;;;;;;4996772;28;20411;-50
2023/07/30 00:06:03;;;;;;;6.00;5.40;;;19.20;99.90;;;;;;5010537;28;20034;-56
2023/07/30 00:08:49;;;;;;;6.75;4.53;;;19.20;99.90;;;;;;5009529;28;20042;-49
2023/07/30 00:11:35;;;;;;;6.18;5.15;;;19.20;99.90;;;;;;5009990;28;20092;-53
2023/07/30 00:14:21;;;;;;;5.97;5.38;;;19.20;99.90;;;;;;5009928;28;20025;-53
2023/07/30 00:17:07;;;;;;;5.97;5.28;;;19.20;99.90;;;;;;5008690;28;20034;-50
2023/07/30 00:19:53;;;;;;;8.05;5.75;;;19.10;99.90;;;;;;5011060;28;20026;-54
2023/07/30 00:22:39;;;;;;;6.55;4.85;;;19.00;99.90;;;;;;5013332;28;20022;-55
2023/07/30 00:25:25;;;;;;;6.25;4.70;;;19.10;99.90;;;;;;5014104;28;20041;-50
2023/07/30 00:28:10;;;;;;;5.53;5.00;;;19.00;99.90;;;;;;5014232;28;20091;-52
2023/07/30 00:30:56;;;;;;;7.20;5.43;;;19.00;99.90;;;;;;5014230;28;20026;-52
2023/07/30 00:33:42;;;;;;;6.10;5.43;;;19.00;99.90;;;;;;5013894;28;20030;-50
2023/07/30 00:36:28;;;;;;;6.43;5.10;;;19.00;99.90;;;;;;5013710;28;20039;-55
2023/07/30 00:39:14;;;;;;;6.57;4.97;;;19.00;99.90;;;;;;5014071;28;20040;-51
2023/07/30 00:42:00;;;;;;;5.80;5.22;;;19.00;99.90;;;;;;5014219;28;20137;-53
2023/07/30 00:44:46;;;;;;;6.93;5.70;;;18.90;99.90;;;;;;5013677;28;20041;-53
2023/07/30 00:47:32;;;;;;;7.07;5.22;;;18.80;99.90;;;;;;5012916;28;20117;-48
2023/07/30 00:50:18;;;;;;;6.30;5.32;;;18.80;99.90;;;;;;5013949;28;20030;-53
2023/07/30 00:53:05;;;;;;;6.20;5.20;;;18.70;99.90;;;;;;5013672;28;20436;-51
2023/07/30 00:55:51;;;;;;;6.18;5.47;;;18.70;99.90;;;;;;5014428;28;20064;-50
2023/07/30 00:58:37;;;;;;;6.10;5.60;;;18.70;99.90;;;;;;5013124;28;20642;-50
2023/07/30 01:01:23;;;;;;;6.03;5.43;;;18.70;99.90;;;;;;4981191;28;20031;-52
2023/07/30 01:04:09;;;;;;;6.40;5.53;;;18.80;99.90;;;;;;4996187;28;20026;-55
2023/07/30 01:06:55;;;;;;;7.82;5.00;;;18.80;99.90;;;;;;4994206;28;20058;-54
2023/07/30 01:09:42;;;;;;;8.98;5.43;;;18.80;99.90;;;;;;5003499;28;20088;-48
2023/07/30 01:12:30;;;;;;;5.88;5.00;;;18.80;99.90;;;;;;5012416;28;20123;-50
2023/07/30 01:15:16;;;;;;;7.07;5.70;;;18.80;99.90;;;;;;5013555;28;20042;-53
2023/07/30 01:18:02;;;;;;;5.65;4.93;;;18.80;99.90;;;;;;5015905;28;20049;-53
2023/07/30 01:20:48;;;;;;;6.97;5.20;;;18.80;99.90;;;;;;5012855;28;20030;-54
2023/07/30 01:23:34;;;;;;;5.60;5.00;;;18.80;99.90;;;;;;5014742;28;20129;-55
2023/07/30 01:26:25;;;;;;;6.15;5.55;;;18.80;99.90;;;;;;5013387;28;20026;-54
2023/07/30 01:29:19;;;;;;;5.95;5.07;;;18.80;99.90;;;;;;5013684;28;20108;-49
2023/07/30 01:32:07;;;;;;;5.90;5.30;;;18.60;99.90;;;;;;5012994;28;20026;-54
2023/07/30 01:34:56;;;;;;;7.22;5.95;;;18.60;99.90;;;;;;5013151;28;20113;-47
2023/07/30 01:37:43;;;;;;;6.10;5.50;;;18.50;99.90;;;;;;5013478;28;20454;-53
2023/07/30 01:40:29;;;;;;;6.13;5.25;;;18.50;99.90;;;;;;5012723;28;20054;-53
2023/07/30 01:43:15;;;;;;;5.63;5.05;;;18.50;99.90;;;;;;5012293;28;20038;-52
2023/07/30 01:46:01;;;;;;;8.90;5.38;;;18.50;99.90;;;;;;5012404;28;20029;-51
2023/07/30 01:48:47;;;;;;;6.05;5.45;;;18.60;99.90;;;;;;5012565;28;20100;-49
2023/07/30 01:51:33;;;;;;;7.10;5.65;;;18.60;99.90;;;;;;5012955;28;20030;-51
2023/07/30 01:54:19;;;;;;;7.53;5.22;;;18.60;99.90;;;;;;4993401;28;20034;-56
2023/07/30 01:57:05;;;;;;;5.75;5.15;;;18.60;99.90;;;;;;4992866;28;20046;-54
2023/07/30 01:59:51;;;;;;;7.97;5.57;;;18.70;99.90;;;;;;5003029;28;20048;-52
2023/07/30 02:02:37;;;;;;;7.95;6.32;;;18.70;99.90;;;;;;5012121;28;20681;-50
2023/07/30 02:05:24;;;;;;;8.27;5.68;;;18.70;99.90;;;;;;5012675;28;20502;-52
2023/07/30 02:08:10;;;;;;;9.07;6.00;;;18.70;99.90;;;;;;5011586;28;20021;-50
2023/07/30 02:10:58;;;;;;;6.30;5.55;;;18.70;99.90;;;;;;5011888;28;20599;-51
2023/07/30 02:13:43;;;;;;;8.50;5.63;;;18.60;99.90;;;;;;5012546;28;20030;-53
2023/07/30 02:16:29;;;;;;;7.40;5.13;;;18.70;99.90;;;;;;5012089;28;20034;-53
2023/07/30 02:19:15;;;;;;;6.38;5.25;;;18.70;99.90;;;;;;5012598;28;20026;-53
2023/07/30 02:22:01;;;;;;;5.90;5.15;;;18.70;99.90;;;;;;5011940;28;20053;-50
2023/07/30 02:24:47;;;;;;;5.80;5.20;;;18.70;99.90;;;;;;5012339;28;20149;-50
2023/07/30 02:27:33;;;;;;;9.02;5.45;;;18.70;99.90;;;;;;5011890;28;20517;-50
2023/07/30 02:30:19;;;;;;;8.25;5.53;;;18.70;99.90;;;;;;5012007;28;20029;-57
2023/07/30 02:33:05;;;;;;;7.72;5.75;;;18.70;99.90;;;;;;5011513;28;20037;-47
2023/07/30 02:35:51;;;;;;;8.07;5.47;;;18.70;99.90;;;;;;5012307;28;20029;-49
2023/07/30 02:38:38;;;;;;;6.68;5.53;;;18.60;99.90;;;;;;5012074;28;20092;-50
2023/07/30 02:41:24;;;;;;;8.00;5.80;;;18.60;99.90;;;;;;5010954;28;20026;-52
2023/07/30 02:44:10;;;;;;;9.40;6.40;;;18.60;99.90;;;;;;5011547;28;20034;-54
2023/07/30 02:46:55;;;;;;;8.57;6.28;;;18.60;99.90;;;;;;5010826;28;20077;-53
2023/07/30 02:49:41;;;;;;;9.27;5.72;;;18.60;99.90;;;;;;5011748;28;20033;-48
2023/07/30 02:52:27;;;;;;;5.97;5.20;;;18.60;99.90;;;;;;5011936;28;20100;-47
2023/07/30 02:55:13;;;;;;;9.82;5.70;;;18.60;99.90;;;;;;5011233;28;20114;-48
2023/07/30 02:57:59;;;;;;;8.18;6.30;;;18.70;99.90;;;;;;5010960;28;20113;-48
2023/07/30 03:00:45;;;;;;;7.20;5.18;;;18.70;99.90;;;;;;5011343;28;20030;-49
2023/07/30 03:03:31;;;;;;;7.97;5.75;;;18.70;99.90;;;;;;5011110;28;20022;-50
2023/07/30 03:06:17;;;;;;;8.18;5.70;;;18.70;99.90;;;;;;5010193;28;20080;-52
2023/07/30 03:09:03;;;;;;;9.20;5.70;;;18.60;99.90;;;;;;4996968;28;20595;-46
2023/07/30 03:11:51;;;;;;;8.18;6.57;;;18.60;99.90;;;;;;5011453;28;20030;-52
2023/07/30 03:14:37;;;;;;;6.38;5.55;;;18.60;99.90;;;;;;5011591;28;20044;-52
2023/07/30 03:17:23;;;;;;;8.13;6.07;;;18.50;99.90;;;;;;5012683;28;20022;-54
2023/07/30 03:20:10;;;;;;;10.15;6.25;;;18.50;99.90;;;;;;5013316;28;20058;-54
2023/07/30 03:22:55;;;;;;;7.20;5.40;;;18.50;99.90;;;;;;5011542;28;20084;-52
2023/07/30 03:25:41;;;;;;;8.05;6.00;;;18.40;99.90;;;;;;5010957;28;20092;-53
2023/07/30 03:28:27;;;;;;;9.15;6.18;;;18.50;99.90;;;;;;5011291;28;20034;-53
2023/07/30 03:31:13;;;;;;;11.35;6.60;;;18.50;99.90;;;;;;5011476;28;20034;-48
2023/07/30 03:34:00;;;;;;;7.38;6.53;;;18.60;99.90;;;;;;5011226;28;20044;-49
2023/07/30 03:36:46;;;;;;;16.63;8.02;;;18.40;99.90;;;;;;5010453;28;20088;-47
2023/07/30 03:39:32;;;;;;;9.30;6.20;;;18.40;99.90;;;;;;5010900;28;20022;-48
2023/07/30 03:42:23;;;;;;;6.60;6.00;;;18.50;99.90;;;;;;5010507;28;20099;-56
2023/07/30 03:45:09;;;;;;;7.75;5.85;;;18.40;99.90;;;;;;5010615;28;20033;-50
2023/07/30 03:47:58;;;;;;;6.70;5.80;;;18.40;99.90;;;;;;5011162;28;20033;-50
2023/07/30 03:50:44;;;;;;;7.15;5.97;;;18.50;99.90;;;;;;5011154;28;20026;-50
2023/07/30 03:53:30;;;;;;;7.22;5.97;;;18.50;99.90;;;;;;5012693;28;20034;-52
2023/07/30 03:56:16;;;;;;;8.77;6.30;;;18.60;99.90;;;;;;5014487;28;20503;-53
2023/07/30 03:59:02;;;;;;;8.23;6.05;;;18.60;99.90;;;;;;5014925;28;20034;-50
2023/07/30 04:01:51;;;;;;;11.65;8.15;;;18.60;99.90;;;;;;5009603;28;20510;-49
2023/07/30 04:04:37;;;;;;;7.18;6.47;;;18.60;99.90;;;;;;5014786;28;20432;-53
2023/07/30 04:07:25;;;;;;;9.00;6.55;;;18.60;99.90;;;;;;5014159;28;20030;-55
2023/07/30 04:10:11;;;;;;;8.95;5.80;;;18.40;99.90;;;;;;5014532;28;20037;-51
2023/07/30 04:13:00;;;;;;;10.65;6.47;;;18.40;99.90;;;;;;5014814;28;20034;-53
2023/07/30 04:15:48;;;;;;;9.45;6.47;;;18.40;99.90;;;;;;4999777;28;20034;-51
2023/07/30 04:18:34;;;;;;;10.27;6.40;;;18.40;99.90;;;;;;5013120;28;20040;-51
2023/07/30 04:21:20;;;;;;;7.93;6.18;;;18.40;99.90;;;;;;5014014;28;20034;-53
2023/07/30 04:24:06;;;;;;;8.43;5.90;;;18.40;99.90;;;;;;5014525;28;20029;-54
2023/07/30 04:26:52;;;;;;;8.07;6.28;;;18.30;99.90;;;;;;5012657;28;20556;-52
2023/07/30 04:29:38;;;;;;;6.53;5.90;;;18.40;99.90;;;;;;5012029;28;20116;-51
2023/07/30 04:32:27;;;;;;;8.20;6.10;;;18.40;99.90;;;;;;5014786;28;20057;-52
2023/07/30 04:35:13;;;;;;;10.35;6.40;;;18.50;99.90;;;;;;5014401;28;20061;-52
2023/07/30 04:37:59;;;;;;;8.25;6.70;;;18.50;99.90;;;;;;5013447;28;20033;-51
2023/07/30 04:40:45;;;;;;;8.35;6.20;;;18.50;99.90;;;;;;5013246;28;20125;-56
2023/07/30 04:43:31;;;;;;;7.28;6.57;;;18.40;99.90;;;;;;5013845;28;20034;-49
2023/07/30 04:46:20;;;;;;;10.15;7.03;;;18.50;99.90;;;;;;5012527;28;20033;-54
2023/07/30 04:49:06;;;;;;;10.82;6.28;;;18.40;99.90;;;;;;5012182;28;20026;-53
2023/07/30 04:51:52;;;;;;;6.70;6.00;;;18.40;99.90;;;;;;5013862;28;20037;-53
2023/07/30 04:54:38;;;;;;;8.10;6.65;;;18.40;99.90;;;;;;5014306;28;20045;-50
2023/07/30 04:57:24;;;;;;;8.77;5.93;;;18.50;99.90;;;;;;5011131;28;20041;-55
2023/07/30 05:00:13;;;;;;;6.90;5.90;;;18.50;99.90;;;;;;5013221;28;20030;-56
2023/07/30 05:02:59;;;;;;;7.22;6.00;;;18.60;99.90;;;;;;5014361;28;20054;-54
2023/07/30 05:05:48;;;;;;;11.55;6.40;;;18.50;99.90;;;;;;5012935;28;20030;-54
2023/07/30 05:08:35;;;;;;;6.35;5.75;;;18.50;99.90;;;;;;5013100;28;20076;-51
2023/07/30 05:11:23;;;;;;;7.90;6.30;;;18.50;99.90;;;;;;5012643;28;20113;-54
2023/07/30 05:14:09;;;;;;;7.90;6.13;;;18.40;99.90;;;;;;4999015;28;20029;-55
2023/07/30 05:16:59;;;;;;;8.98;6.28;;;18.50;99.90;;;;;;5013124;28;20354;-55
2023/07/30 05:19:47;;;;;;;8.63;6.15;;;18.50;99.90;;;;;;4979686;28;20118;-54
2023/07/30 05:22:36;;;;;;;7.88;6.80;;;18.50;99.90;;;;;;4994294;28;20044;-55
2023/07/30 05:25:23;;;;;;;10.48;6.20;;;18.50;99.90;;;;;;5000970;28;20033;-52
2023/07/30 05:28:09;;;;;;;9.65;5.85;;;18.60;99.90;;;;;;5013148;28;20045;-55
2023/07/30 05:30:55;;;;;;;8.30;6.43;;;18.60;99.90;;;;;;5012103;28;20105;-54
2023/07/30 05:33:44;;;;;;;8.35;6.20;;;18.70;99.90;;;;;;5012455;28;20477;-50
2023/07/30 05:36:33;;;;;;;10.23;6.75;;;18.80;99.90;;;;;;4998650;28;20037;-54
2023/07/30 05:39:19;;;;;;;7.18;5.97;;;18.90;99.90;;;;;;5012993;28;20026;-53
2023/07/30 05:42:07;;;;;;;7.65;6.47;;;18.80;99.90;;;;;;5013020;28;20022;-55
2023/07/30 05:44:53;;;;;;;7.32;6.10;;;19.00;99.90;;;;;;5012616;28;20026;-52
2023/07/30 05:47:40;;;;;;;7.00;5.50;;;19.00;99.90;;;;;;5012318;28;20114;-49
2023/07/30 05:50:26;;;;;;;7.80;5.85;;;19.10;99.90;;;;;;5011781;28;20057;-49
2023/07/30 05:53:17;;;;;;;7.60;6.00;;;19.10;99.90;;;;;;5012720;28;20026;-50
2023/07/30 05:56:03;;;;;;;6.45;5.35;;;19.20;99.90;;;;;;5013464;28;20028;-54
2023/07/30 05:58:49;;;;;;;8.18;5.95;;;19.20;99.90;;;;;;5012387;28;20026;-53
2023/07/30 06:01:35;;;;;;;6.30;5.47;;;19.30;99.90;;;;;;5012453;28;20486;-52
2023/07/30 06:04:21;;;;;;;7.63;5.32;;;19.40;99.90;;;;;;5012432;28;20030;-55
2023/07/30 06:07:08;;;;;;;8.02;5.63;;;19.50;99.90;;;;;;5012051;28;20029;-56
2023/07/30 06:09:53;;;;;;;7.38;5.50;;;19.60;99.90;;;;;;5012163;28;20030;-52
2023/07/30 06:12:39;;;;;;;5.50;5.00;;;19.50;99.90;;;;;;5012001;28;20537;-49
2023/07/30 06:15:25;;;;;;;8.45;6.35;;;19.60;99.90;;;;;;5011895;28;20495;-49
2023/07/30 06:18:11;;;;;;;8.52;6.20;;;19.60;99.90;;;;;;5011830;28;20029;-51
2023/07/30 06:20:57;;;;;;;7.50;5.60;;;19.70;99.90;;;;;;5011974;28;20085;-50
2023/07/30 06:23:43;;;;;;;6.95;5.60;;;19.80;99.90;;;;;;5012380;28;20518;-51
2023/07/30 06:26:29;;;;;;;10.10;5.60;;;19.80;99.90;;;;;;5012045;28;20503;-54
2023/07/30 06:29:15;;;;;;;8.25;5.97;;;19.90;99.90;;;;;;5011804;28;20049;-53
2023/07/30 06:32:01;;;;;;;6.70;6.10;;;20.00;99.90;;;;;;5012185;28;20471;-51
2023/07/30 06:34:48;;;;;;;7.18;5.53;;;20.00;99.90;;;;;;5011355;28;20037;-52
2023/07/30 06:37:34;;;;;;;8.18;5.57;;;20.10;99.90;;;;;;4991857;28;20473;-54
2023/07/30 06:40:23;;;;;;;5.35;4.85;;;20.20;99.90;;;;;;4981029;28;20065;-50
2023/07/30 06:43:09;;;;;;;8.02;5.35;;;20.20;99.90;;;;;;5011080;28;20045;-51
2023/07/30 06:45:55;;;;;;;5.75;4.97;;;20.30;99.90;;;;;;5011555;28;20034;-52
2023/07/30 06:48:40;;;;;;;7.90;5.90;;;20.40;99.90;;;;;;5012675;28;20079;-55
2023/07/30 06:51:27;;;;;;;6.80;5.30;;;20.50;99.90;;;;;;5011766;28;20034;-52
2023/07/30 06:54:13;;;;;;;6.35;4.63;;;20.40;99.90;;;;;;4997417;28;20022;-52
2023/07/30 06:56:59;;;;;;;5.85;4.93;;;20.40;99.90;;;;;;5011124;28;20498;-56
2023/07/30 06:59:45;;;;;;;5.25;4.75;;;20.50;99.90;;;;;;5012032;28;20030;-51
2023/07/30 07:02:32;;;;;;;10.38;5.80;;;20.40;99.90;;;;;;5012747;28;20509;-51
2023/07/30 07:05:19;;;;;;;7.03;4.97;;;20.50;99.90;;;;;;5011549;28;20037;-52
2023/07/30 07:08:05;;;;;;;7.22;4.95;;;20.60;99.90;;;;;;4996931;28;20080;-54
2023/07/30 07:10:52;;;;;;;7.10;5.03;;;20.70;99.90;;;;;;4996330;28;20120;-52
2023/07/30 07:13:43;;;;;;;6.35;4.97;;;20.90;99.90;;;;;;5011425;28;20084;-53
2023/07/30 07:16:29;;;;;;;6.40;5.03;;;20.90;99.90;;;;;;5010432;28;20506;-49
2023/07/30 07:19:15;;;;;;;6.88;4.65;;;20.90;99.90;;;;;;5011474;28;20402;-52
2023/07/30 07:22:01;;;;;;;6.63;5.00;;;21.10;99.90;;;;;;5011393;28;20018;-54
2023/07/30 07:24:47;;;;;;;13.02;6.10;;;21.20;99.90;;;;;;4998708;28;20026;-52
2023/07/30 07:27:33;;;;;;;8.15;6.15;;;21.10;99.90;;;;;;5011774;28;20057;-48
2023/07/30 07:30:19;;;;;;;9.48;6.10;;;21.20;99.90;;;;;;5010832;28;20022;-50
2023/07/30 07:33:12;;;;;;;8.68;6.10;;;21.10;99.90;;;;;;5009726;28;20109;-52
2023/07/30 07:36:06;;;;;;;7.63;6.22;;;21.10;99.90;;;;;;5010441;28;20537;-51
2023/07/30 07:38:52;;;;;;;8.55;7.25;;;21.10;99.90;;;;;;5010753;28;20018;-50
2023/07/30 07:41:38;;;;;;;9.05;7.40;;;21.10;99.90;;;;;;5009805;28;20068;-52
2023/07/30 07:44:24;;;;;;;9.35;8.07;;;21.10;99.90;;;;;;5010722;28;20030;-51
2023/07/30 07:47:10;;;;;;;11.57;8.40;;;21.00;99.90;;;;;;5010288;28;20034;-53
2023/07/30 07:49:56;;;;;;;8.80;8.00;;;20.90;99.90;;;;;;5010631;28;20034;-53
2023/07/30 07:52:42;;;;;;;9.88;7.97;;;20.80;99.90;;;;;;5010819;28;20041;-53
2023/07/30 07:55:28;;;;;;;9.15;7.97;;;20.90;99.90;;;;;;5010918;28;20109;-51
2023/07/30 07:58:14;;;;;;;8.68;7.60;;;21.10;99.90;;;;;;5010113;28;20388;-53
2023/07/30 08:01:00;;;;;;;8.48;7.55;;;21.30;99.90;;;;;;5010684;28;20388;-52
2023/07/30 08:03:46;;;;;;;9.10;7.57;;;21.10;99.90;;;;;;5010583;28;20133;-54
2023/07/30 08:06:32;;;;;;;8.35;6.43;;;21.30;99.90;;;;;;5009836;28;20152;-52
2023/07/30 08:09:18;;;;;;;8.48;5.93;;;21.30;99.90;;;;;;5010031;28;20080;-53
2023/07/30 08:12:05;;;;;;;9.90;5.60;;;21.20;99.90;;;;;;5010069;28;20041;-52
2023/07/30 08:14:51;;;;;;;7.05;5.82;;;21.30;99.50;;;;;;5009945;28;20027;-55
2023/07/30 08:17:37;;;;;;;6.82;5.53;;;21.60;99.60;;;;;;5009424;28;20022;-48
2023/07/30 08:20:23;;;;;;;5.35;4.47;;;21.40;98.40;;;;;;4995549;28;20552;-50
2023/07/30 08:23:09;;;;;;;5.45;4.85;;;21.30;97.40;;;;;;5010816;28;20490;-51
2023/07/30 08:25:55;;;;;;;5.32;4.43;;;21.40;97.70;;;;;;5010536;28;20045;-52
2023/07/30 08:28:41;;;;;;;7.30;5.05;;;21.50;97.70;;;;;;5010142;28;20517;-52
2023/07/30 08:31:27;;;;;;;5.95;4.28;;;21.50;97.30;;;;;;5010851;28;20034;-52
2023/07/30 08:34:13;;;;;;;5.53;4.75;;;21.50;97.00;;;;;;5010687;28;20068;-52
2023/07/30 08:36:59;;;;;;;6.25;4.55;;;21.70;97.20;;;;;;4996711;28;20510;-51
2023/07/30 08:39:45;;;;;;;10.57;4.55;;;21.90;97.10;;;;;;5010269;28;20022;-53
2023/07/30 08:42:32;;;;;;;6.18;4.38;;;22.10;96.30;;;;;;5013246;28;20471;-51
2023/07/30 08:45:18;;;;;;;5.88;4.60;;;22.10;96.30;;;;;;4994999;28;20026;-51
2023/07/30 08:48:04;;;;;;;5.72;4.07;;;22.10;96.60;;;;;;4994550;28;20026;-50
2023/07/30 08:50:50;;;;;;;5.38;4.18;;;22.30;96.20;;;;;;4994283;28;20107;-56
2023/07/30 08:53:37;;;;;;;6.60;4.50;;;22.40;96.30;;;;;;5011919;28;20021;-52
2023/07/30 08:56:23;;;;;;;6.28;4.65;;;22.30;96.60;;;;;;5013729;28;20029;-54
2023/07/30 08:59:11;;;;;;;7.82;4.85;;;22.40;96.20;;;;;;5013454;28;20026;-63
2023/07/30 09:01:58;;;;;;;5.20;4.50;;;22.40;96.70;;;;;;5013281;28;20026;-64
2023/07/30 09:04:47;;;;;;;5.38;4.28;;;22.40;95.80;;;;;;5014690;28;20372;-61
2023/07/30 09:07:33;;;;;;;5.45;4.22;;;22.50;95.90;;;;;;5012974;28;20029;-53
2023/07/30 09:10:19;;;;;;;4.90;4.45;;;22.50;96.00;;;;;;5012307;28;20026;-53
2023/07/30 09:13:05;;;;;;;5.35;4.40;;;22.60;95.90;;;;;;5013422;28;20026;-50
2023/07/30 09:15:51;;;;;;;7.03;4.43;;;22.60;95.50;;;;;;5011582;28;20494;-53
2023/07/30 09:18:42;;;;;;;6.80;4.60;;;22.40;95.30;;;;;;5013142;28;20084;-52
2023/07/30 09:21:32;;;;;;;7.65;4.38;;;22.40;95.70;;;;;;5013179;28;20041;-53
2023/07/30 09:24:22;;;;;;;7.38;4.13;;;22.60;95.70;;;;;;4980495;28;20113;-56
2023/07/30 09:27:08;;;;;;;7.35;4.43;;;22.70;95.30;;;;;;5010025;28;20036;-52
2023/07/30 09:29:56;;;;;;;5.32;4.43;;;22.60;95.70;;;;;;5011835;28;20042;-53
2023/07/30 09:32:42;;;;;;;6.45;4.50;;;22.70;95.80;;;;;;5013419;28;20030;-53
2023/07/30 09:35:28;;;;;;;5.93;4.10;;;22.90;95.80;;;;;;5011757;28;20026;-47
2023/07/30 09:38:14;;;;;;;4.50;4.10;;;23.00;95.00;;;;;;5012041;28;20026;-53
2023/07/30 09:41:01;;;;;;;7.57;4.25;;;23.00;95.40;;;;;;5013567;28;20030;-52
2023/07/30 09:43:47;;;;;;;4.63;3.60;;;23.00;95.10;;;;;;5004879;28;20061;-54
2023/07/30 09:46:43;;;;;;;5.95;4.05;;;23.10;93.60;;;;;;5013237;28;20033;-51
2023/07/30 09:49:29;;;;;;;5.05;3.60;;;23.20;93.60;;;;;;4993457;28;20054;-50
2023/07/30 09:52:16;;;;;;;6.40;3.80;;;23.20;92.90;;;;;;5014372;28;20117;-54
2023/07/30 09:55:03;;;;;;;6.28;3.85;;;23.30;92.80;;;;;;5012700;28;20049;-51
2023/07/30 09:57:49;;;;;;;5.13;3.92;;;23.50;92.40;;;;;;5012395;28;20495;-51
2023/07/30 10:00:35;;;;;;;6.60;3.50;;;23.40;92.80;;;;;;5012868;28;20093;-54
2023/07/30 10:03:21;;;;;;;4.75;3.65;;;23.40;93.10;;;;;;5011096;28;20447;-48
2023/07/30 10:06:08;;;;;;;4.75;3.47;;;23.30;92.90;;;;;;5012754;28;20050;-51
2023/07/30 10:08:56;;;;;;;5.35;3.50;;;23.60;92.20;;;;;;5010660;28;20092;-50
2023/07/30 10:11:44;;;;;;;3.58;3.17;;;23.80;92.40;;;;;;4993883;28;20572;-48
2023/07/30 10:14:31;;;;;;;5.95;3.38;;;23.90;92.60;;;;;;4992187;28;20038;-53
2023/07/30 10:17:17;;;;;;;6.38;3.35;;;23.70;93.30;;;;;;4995717;28;20429;-48
2023/07/30 10:20:26;;;;;;;5.45;3.40;;;23.80;93.40;;;;;;5017226;28;20037;-52
2023/07/30 10:23:12;;;;;;;6.22;3.30;;;23.90;92.70;;;;;;5031648;28;20028;-53
2023/07/30 10:25:58;;;;;;;3.55;3.20;;;23.80;92.80;;;;;;5032012;28;20091;-53
2023/07/30 10:28:44;;;;;;;6.90;3.22;;;23.80;92.80;;;;;;5032609;28;20649;-47
2023/07/30 10:31:41;;;;;;;3.72;3.20;;;23.70;92.80;;;;;;5005492;28;20038;-51
2023/07/30 10:34:46;;;;;;;4.47;3.20;;;23.70;92.90;;;;;;4992650;28;20038;-50
2023/07/30 10:37:32;;;;;;;5.93;3.67;;;23.80;92.90;;;;;;5010971;28;20410;-54
2023/07/30 10:40:18;;;;;;;3.50;3.20;;;23.80;92.70;;;;;;4994627;28;20037;-52
2023/07/30 10:43:17;;;;;;;6.97;3.20;;;23.70;92.80;;;;;;5011395;28;20038;-47
2023/07/30 10:46:03;;;;;;;3.97;3.33;;;23.80;92.10;;;;;;5011948;28;20041;-50
2023/07/30 10:48:49;;;;;;;3.40;2.80;;;23.70;92.40;;;;;;5009780;28;20034;-51
2023/07/30 10:51:35;;;;;;;3.03;2.72;;;23.80;92.60;;;;;;4990801;28;20113;-50
2023/07/30 10:54:22;;;;;;;3.80;2.97;;;23.90;92.40;;;;;;4992475;28;20034;-56
2023/07/30 10:57:07;;;;;;;4.25;3.28;;;23.90;92.20;;;;;;4992891;28;20142;-59
2023/07/30 10:59:54;;;;;;;4.10;3.00;;;24.10;92.20;;;;;;4992821;28;20498;-61
2023/07/30 11:02:40;;;;;;;4.55;3.05;;;24.20;92.60;;;;;;4993786;28;20042;-59
2023/07/30 11:05:26;;;;;;;3.60;2.95;;;24.10;92.40;;;;;;4996021;28;20026;-58
2023/07/30 11:08:12;;;;;;;3.20;2.90;;;24.10;92.00;;;;;;5011792;28;20092;-61
2023/07/30 11:10:58;;;;;;;4.90;3.17;;;24.00;92.00;;;;;;5010835;28;20037;-60
2023/07/30 11:13:46;;;;;;;4.78;2.83;;;24.00;92.20;;;;;;5011372;28;20113;-60
2023/07/30 11:16:32;;;;;;;7.20;3.15;;;24.10;92.40;;;;;;4989293;28;20085;-61
2023/07/30 11:19:18;;;;;;;4.72;3.20;;;24.10;92.70;;;;;;5011095;28;20120;-59
2023/07/30 11:22:09;;;;;;;3.88;3.05;;;24.30;92.50;;;;;;5004042;28;20057;-57
2023/07/30 11:24:55;;;;;;;3.50;3.20;;;24.50;91.90;;;;;;5011252;28;20084;-61
2023/07/30 11:27:51;;;;;;;4.45;3.08;;;24.40;92.40;;;;;;5011269;28;20545;-59
2023/07/30 11:30:37;;;;;;;5.07;3.20;;;24.50;91.90;;;;;;5010982;28;20034;-59
2023/07/30 11:33:23;;;;;;;3.78;3.22;;;24.50;92.30;;;;;;5010698;28;20471;-59
2023/07/30 11:36:12;;;;;;;4.47;3.30;;;24.60;91.80;;;;;;5010742;28;20034;-58
2023/07/30 11:38:59;;;;;;;4.65;3.35;;;24.60;91.70;;;;;;5010363;28;20491;-58
2023/07/30 11:41:45;;;;;;;4.93;3.10;;;24.30;92.00;;;;;;5011151;28;20036;-58
2023/07/30 11:44:37;;;;;;;5.40;3.00;;;24.50;91.80;;;;;;5010949;28;20121;-58
2023/07/30 11:47:23;;;;;;;3.90;3.30;;;24.40;92.10;;;;;;5009291;28;20030;-59
2023/07/30 11:50:09;;;;;;;4.85;3.40;;;24.20;92.00;;;;;;5010612;28;20572;-59
2023/07/30 11:52:56;;;;;;;4.10;3.22;;;24.10;92.20;;;;;;5011325;28;20415;-59
2023/07/30 11:55:43;;;;;;;4.25;3.28;;;24.00;92.90;;;;;;5010095;28;20580;-59
2023/07/30 11:58:29;;;;;;;4.82;3.42;;;24.00;92.60;;;;;;5010084;28;20036;-59
2023/07/30 12:01:18;;;;;;;3.53;3.17;;;24.00;92.50;;;;;;5010292;28;20029;-58
2023/07/30 12:04:06;;;;;;;5.00;3.53;;;24.10;92.60;;;;;;5010531;28;20022;-58
2023/07/30 12:06:53;;;;;;;5.63;3.10;;;24.20;92.60;;;;;;5011177;28;20034;-60
2023/07/30 12:09:39;;;;;;;5.55;3.10;;;24.20;92.50;;;;;;5010538;28;20085;-60
2023/07/30 12:12:26;;;;;;;4.25;3.53;;;24.10;92.80;;;;;;5010473;28;20588;-67
2023/07/30 12:15:12;;;;;;;4.03;3.17;;;24.10;93.10;;;;;;5013251;28;20076;-60
2023/07/30 12:17:58;;;;;;;4.05;3.25;;;24.00;92.80;;;;;;5013631;28;20109;-60
2023/07/30 12:20:45;;;;;;;4.32;3.22;;;23.90;92.90;;;;;;5013593;28;20041;-59
2023/07/30 12:23:31;;;;;;;4.07;3.50;;;23.80;93.30;;;;;;5015498;28;20121;-58
2023/07/30 12:26:17;;;;;;;4.03;3.00;;;23.70;92.90;;;;;;5014141;28;20075;-59
2023/07/30 12:29:03;;;;;;;5.05;3.55;;;23.50;92.90;;;;;;5013693;28;20122;-59
2023/07/30 12:31:51;;;;;;;4.35;3.50;;;23.30;93.40;;;;;;5012652;28;20042;-60
2023/07/30 12:34:37;;;;;;;4.55;3.83;;;23.30;94.30;;;;;;5013715;28;20038;-54
2023/07/30 12:37:23;;;;;;;7.05;3.90;;;23.10;95.10;;;;;;5013912;28;20049;-60
2023/07/30 12:40:09;;;;;;;6.97;4.28;;;22.80;96.90;;;;;;4997825;28;20018;-59
2023/07/30 12:42:56;;;;;;;5.68;4.50;;;22.30;98.90;;;;;;5013489;28;20483;-59
2023/07/30 12:45:41;;;;;;;9.48;5.63;;;21.70;99.90;;;;;;5013045;28;20030;-60
2023/07/30 12:48:27;;;;;;;6.57;5.70;;;21.20;99.90;;;;;;5012730;28;20029;-61
2023/07/30 12:51:14;;;;;;;10.77;5.85;;;20.60;99.90;;;;;;5014336;28;20502;-61
2023/07/30 12:54:00;;;;;;;9.00;6.05;;;20.30;99.90;;;;;;5014174;28;20065;-61
2023/07/30 12:56:46;;;;;;;11.18;6.60;;;20.40;99.90;;;;;;5013317;28;20076;-61
2023/07/30 12:59:32;;;;;;;7.72;5.78;;;20.30;99.90;;;;;;5015013;28;20034;-60
2023/07/30 13:02:18;;;;;;;7.97;6.20;;;20.40;99.90;;;;;;5014156;28;20115;-62
2023/07/30 13:05:04;;;;;;;10.52;6.70;;;20.60;99.90;;;;;;5012880;28;20029;-55
2023/07/30 13:07:50;;;;;;;8.98;6.57;;;20.90;99.90;;;;;;5013522;28;20410;-54
2023/07/30 13:10:36;;;;;;;9.73;6.55;;;21.20;99.90;;;;;;5013726;28;20026;-56
2023/07/30 13:13:23;;;;;;;7.85;6.50;;;21.30;99.90;;;;;;5014030;28;20030;-52
2023/07/30 13:16:09;;;;;;;6.57;5.80;;;21.60;99.90;;;;;;5012969;28;20502;-56
2023/07/30 13:18:56;;;;;;;7.68;5.90;;;22.10;99.90;;;;;;5013568;28;20029;-55
2023/07/30 13:21:42;;;;;;;7.95;6.05;;;22.60;99.90;;;;;;5012712;28;20041;-51
2023/07/30 13:24:31;;;;;;;11.02;6.35;;;22.60;99.90;;;;;;5012487;28;20037;-51
2023/07/30 13:27:18;;;;;;;10.50;6.20;;;22.40;99.90;;;;;;5011067;28;20034;-55
2023/07/30 13:30:04;;;;;;;9.70;5.75;;;22.00;99.90;;;;;;5013343;28;20451;-55
2023/07/30 13:32:50;;;;;;;8.13;6.03;;;21.70;99.90;;;;;;5012204;28;20038;-54
2023/07/30 13:35:36;;;;;;;8.93;5.85;;;21.50;99.90;;;;;;5013089;28;20084;-53
2023/07/30 13:38:22;;;;;;;9.07;5.07;;;21.30;99.90;;;;;;5013028;28;20080;-52
2023/07/30 13:41:08;;;;;;;9.15;5.50;;;21.20;99.90;;;;;;5013281;28;20402;-52
2023/07/30 13:43:54;;;;;;;6.45;4.40;;;21.10;99.90;;;;;;5012606;28;20033;-54
2023/07/30 13:46:40;;;;;;;6.82;4.90;;;21.10;99.90;;;;;;5012510;28;20069;-53
2023/07/30 13:49:26;;;;;;;10.50;5.72;;;21.00;99.90;;;;;;5012329;28;20022;-55
2023/07/30 13:52:12;;;;;;;7.85;4.75;;;20.90;99.90;;;;;;5011865;28;20065;-52
2023/07/30 13:54:58;;;;;;;5.88;4.60;;;21.10;99.90;;;;;;5011591;28;20034;-51
2023/07/30 13:57:44;;;;;;;7.30;4.57;;;21.40;99.90;;;;;;5012005;28;20123;-53
2023/07/30 14:00:30;;;;;;;4.97;4.22;;;21.40;99.90;;;;;;5010889;28;20474;-54
2023/07/30 14:03:16;;;;;;;9.75;4.57;;;21.50;99.90;;;;;;4993075;28;20035;-52
2023/07/30 14:06:03;;;;;;;6.93;4.13;;;21.50;99.90;;;;;;4991744;28;20062;-52
2023/07/30 14:08:49;;;;;;;5.80;4.40;;;21.50;99.90;;;;;;4998518;28;20153;-50
2023/07/30 14:11:35;;;;;;;4.63;4.05;;;21.60;99.90;;;;;;5011831;28;20116;-53
2023/07/30 14:14:22;;;;;;;6.22;4.03;;;21.70;99.90;;;;;;5012099;28;20109;-54
2023/07/30 14:17:08;;;;;;;4.80;4.20;;;21.50;99.90;;;;;;5011381;28;20034;-50
2023/07/30 14:19:55;;;;;;;6.72;4.05;;;21.60;99.90;;;;;;5011303;28;20022;-52
2023/07/30 14:22:41;;;;;;;7.28;4.55;;;21.50;99.90;;;;;;5011388;28;20398;-52
2023/07/30 14:25:27;;;;;;;7.40;4.53;;;21.50;99.90;;;;;;5010186;28;20038;-56